Terminal Aerodrome Forecast
Issued by NWS

Home | Current Version | Previous Version | Text Only | Print | Product List | Glossary On
Versions: 1 2 3 4 5 6 7 8 9 10 11 12 13 14 15 16 17
046
FTAK31 PAJN 302338
TAFASI
TAF
PASI 302338Z 0100/0124 13020G30KT P6SM -RA OVC040
      TEMPO 0102/0106 13012KT 4SM -RA OVC025
     FM010600 15012KT 6SM -SHRA BKN025 OVC040
     FM011500 14007KT P6SM -RA SCT010 BKN025 OVC040=

USA.gov is the U.S. government's official web portal to all federal, state and local government web resources and services.